Flight Track Log - Related Links

Times and Time Zones

All times are in EDT time to prevent confusion due to time zone crossing. See the ASQ6045 flight status page for this flight to view local times or setup timezone preferences in your user account.

Time Position Orientation Groundspeed Altitude Reporting Facility
EDT Latitude Longitude Course Direction KTS MPH feet Rate Location/Type
Wed 11:15:56 AM 41.9333 -87.9000 206° Southwest 173 199 2,000  Level Chicago TRACON
Wed 11:16:56 AM 41.8833 -87.9333 206° Southwest 220 253 4,800 2,475 Climbing Chicago TRACON
Wed 11:17:16 AM 41.8744 -87.9342 184° South 207 238 5,300 2,444 Climbing Chicago Center
Wed 11:18:17 AM 41.8081 -87.9633 198° South 241 277 8,100 2,780 Climbing Chicago Center
Wed 11:19:19 AM 41.7392 -88.0006 202° Southwest 268 308 11,000 2,903 Climbing Chicago Center
Wed 11:20:21 AM 41.6533 -88.0472 202° Southwest 277 319 14,100 2,274 Climbing Chicago Center
Wed 11:21:23 AM 41.5725 -88.0903 202° Southwest 309 356 15,700 1,610 Climbing Chicago Center
Wed 11:22:24 AM 41.4842 -88.1386 202° Southwest 345 397 17,400 1,756 Climbing Chicago Center
Wed 11:23:26 AM 41.3933 -88.1864 202° Southwest 364 419 19,300 1,790 Climbing Chicago Center
Wed 11:24:28 AM 41.2756 -88.2389 199° South 379 436 21,100 1,790 Climbing Chicago Center
Wed 11:25:30 AM 41.1753 -88.2842 199° South 384 442 23,000 1,742 Climbing Chicago Center
Wed 11:26:32 AM 41.0733 -88.3311 199° South 388 447 24,700 1,597 Climbing Chicago Center
Wed 11:27:34 AM 40.9956 -88.4275 223° Southwest 386 444 26,300 1,645 Climbing Chicago Center
Wed 11:28:36 AM 40.9239 -88.5311 228° Southwest 384 442 28,100 1,756 Climbing Chicago Center
Wed 11:29:37 AM 40.8547 -88.6319 228° Southwest 374 430 29,900 1,756 Climbing Chicago Center
Wed 11:30:39 AM 40.7719 -88.7531 228° Southwest 372 428 31,700 1,016 Climbing Chicago Center
Wed 11:31:41 AM 40.7033 -88.8508 227° Southwest 381 438 32,000 145 Climbing Chicago Center
Wed 11:32:43 AM 40.6228 -88.9667 228° Southwest 419 482 32,000  Level Chicago Center
Wed 11:33:45 AM 40.5403 -89.0853 228° Southwest 434 499 32,000 48 Level Chicago Center
Wed 11:34:47 AM 40.4594 -89.2000 227° Southwest 428 493 32,100 677 Climbing Chicago Center
Wed 11:35:49 AM 40.3775 -89.3142 227° Southwest 428 493 33,400 919 Climbing Chicago Center
Wed 11:36:51 AM 40.2867 -89.4431 227° Southwest 404 465 34,000 290 Climbing Chicago Center
Wed 11:37:53 AM 40.2075 -89.5572 228° Southwest 416 479 34,000  Level Chicago Center
Wed 11:38:55 AM 40.1236 -89.6722 226° Southwest 430 495 34,000  Level Chicago Center
Wed 11:39:41 AM 40.0581 -89.7689 228° Southwest 434 499 34,000  Level Kansas City Center
Wed 11:40:43 AM 39.9736 -89.8839 226° Southwest 437 503 34,000 231 Level Kansas City Center
Wed 11:40:59 AM 39.9575 -89.9031 222° Southwest 434 499 34,300 1,308 Climbing Chicago Center
Wed 11:42:01 AM 39.8792 -90.0169 228° Southwest 417 480 35,700 936 Climbing Chicago Center
Wed 11:42:48 AM 39.8164 -90.1036 227° Southwest 412 474 36,000 167 Climbing Kansas City Center
Wed 11:43:49 AM 39.7306 -90.2211 226° Southwest 417 480 36,000  Level Kansas City Center
Wed 11:44:51 AM 39.6486 -90.3344 227° Southwest 427 491 36,000  Level Kansas City Center
Wed 11:45:53 AM 39.5681 -90.4453 227° Southwest 427 491 36,000  Level Kansas City Center
Wed 11:46:55 AM 39.4894 -90.5569 228° Southwest 423 487 36,000  Level Kansas City Center
Wed 11:47:57 AM 39.4092 -90.6989 234° Southwest 413 475 36,000  Level Kansas City Center
Wed 11:48:59 AM 39.3422 -90.8186 234° Southwest 413 475 36,000  Level Kansas City Center
Wed 11:50:01 AM 39.2747 -90.9361 233° Southwest 411 473 36,000  Level Kansas City Center
Wed 11:51:03 AM 39.2064 -91.0558 234° Southwest 414 476 36,000  Level Kansas City Center
Wed 11:52:05 AM 39.1414 -91.1711 234° Southwest 408 470 36,000  Level Kansas City Center
Wed 11:53:07 AM 39.0614 -91.3108 234° Southwest 407 468 36,000  Level Kansas City Center
Wed 11:54:09 AM 38.9950 -91.4258 233° Southwest 405 466 36,000  Level Kansas City Center
Wed 11:55:11 AM 38.9308 -91.5392 234° Southwest 398 458 36,000  Level Kansas City Center
Wed 11:56:13 AM 38.8644 -91.6519 233° Southwest 397 457 36,000  Level Kansas City Center
Wed 11:57:15 AM 38.7942 -91.7719 233° Southwest 397 457 36,000  Level Kansas City Center
Wed 11:58:16 AM 38.7283 -91.8839 233° Southwest 395 455 36,000  Level Kansas City Center
Wed 11:59:18 AM 38.6619 -91.9958 233° Southwest 395 455 36,000  Level Kansas City Center
Wed 12:00:20 PM 38.5831 -92.1303 233° Southwest 395 455 36,000  Level Kansas City Center
Wed 12:01:22 PM 38.5169 -92.2417 233° Southwest 394 453 36,000  Level Kansas City Center
Wed 12:02:24 PM 38.4503 -92.3536 233° Southwest 396 456 36,000  Level Kansas City Center
Wed 12:03:26 PM 38.3844 -92.4633 233° Southwest 393 452 36,000  Level Kansas City Center
Wed 12:04:28 PM 38.3189 -92.5733 233° Southwest 393 452 36,000  Level Kansas City Center
Wed 12:05:30 PM 38.2525 -92.6833 232° Southwest 394 453 36,000  Level Kansas City Center
Wed 12:06:32 PM 38.1736 -92.8150 233° Southwest 393 452 36,000  Level Kansas City Center
Wed 12:07:34 PM 38.1075 -92.9247 233° Southwest 393 452 36,000  Level Kansas City Center
Wed 12:08:36 PM 38.0403 -93.0347 232° Southwest 395 455 36,000  Level Kansas City Center
Wed 12:09:38 PM 37.9742 -93.1431 232° Southwest 391 450 36,000  Level Kansas City Center
Wed 12:10:40 PM 37.9081 -93.2511 232° Southwest 389 448 36,000  Level Kansas City Center
Wed 12:11:42 PM 37.8417 -93.3614 233° Southwest 392 451 36,000  Level Kansas City Center
Wed 12:12:43 PM 37.7608 -93.4914 232° Southwest 391 450 36,000  Level Kansas City Center
Wed 12:13:45 PM 37.6942 -93.5989 232° Southwest 390 449 36,000  Level Kansas City Center
Wed 12:14:47 PM 37.6258 -93.7072 231° Southwest 393 452 36,000  Level Kansas City Center
Wed 12:15:49 PM 37.5575 -93.8136 231° Southwest 391 450 36,000  Level Kansas City Center
Wed 12:16:51 PM 37.4917 -93.9228 233° Southwest 390 449 36,000  Level Kansas City Center
Wed 12:17:53 PM 37.4242 -94.0300 232° Southwest 390 449 36,000 -242 Level Kansas City Center
Wed 12:18:55 PM 37.3492 -94.1464 231° Southwest 393 452 35,500 -1,306 Descending Kansas City Center
Wed 12:19:57 PM 37.2786 -94.2606 232° Southwest 409 471 33,300 -2,129 Descending Kansas City Center
Wed 12:20:59 PM 37.2028 -94.3792 231° Southwest 430 495 31,100 -2,419 Descending Kansas City Center
Wed 12:22:01 PM 37.1125 -94.5244 232° Southwest 439 505 28,300 -2,439 Descending Kansas City Center
Wed 12:23:02 PM 37.0403 -94.6378 231° Southwest 424 488 26,100 -1,122 Descending Kansas City Center
Wed 12:24:04 PM 36.9719 -94.7447 231° Southwest 400 460 26,000 -48 Descending Kansas City Center
Wed 12:25:06 PM 36.9019 -94.8575 232° Southwest 406 467 26,000 -242 Level Kansas City Center
Wed 12:26:08 PM 36.8247 -94.9628 228° Southwest 411 473 25,500 -484 Descending Kansas City Center
Wed 12:27:10 PM 36.7469 -95.0617 226° Southwest 404 465 25,000 -732 Descending Kansas City Center
Wed 12:28:11 PM 36.6881 -95.1736 237° Southwest 399 459 24,000 -500 Descending Kansas City Center
Wed 12:29:10 PM 36.6069 -95.2942 230° Southwest 411 473 24,000 -1,062 Level Kansas City Center
Wed 12:30:04 PM 36.5331 -95.3850 225° Southwest 403 464 22,000 -2,348 Descending Kansas City Center
Wed 12:31:05 PM 36.4611 -95.4728 224° Southwest 362 417 19,500 -2,672 Descending Kansas City Center
Wed 12:32:12 PM 36.4158 -95.5775 242° Southwest 335 386 16,300 -3,000 Descending Kansas City Center
Wed 12:33:19 PM 36.4297 -95.7106 277° West 336 387 12,800 -2,835 Descending Kansas City Center
Wed 12:34:19 PM 36.4047 -95.8100 253° West 309 356 10,300 -2,529 Descending Kansas City Center
Wed 12:35:20 PM 36.3558 -95.8761 227° Southwest 248 285 7,700 -2,826 Descending Kansas City Center
Wed 12:36:20 PM 36.3014 -95.9272 217° Southwest 236 272 4,600 -2,344 Descending Kansas City Center
Wed 12:37:28 PM 36.2497 -95.9356 187° South 200 230 2,700 -1,475 Descending Kansas City Center
Wed 12:38:22 PM 36.2078 -95.9367 181° South 136 157 1,600 -968 Descending Kansas City Center
Wed 12:39:32 PM 36.1958 -95.8947 109° East 145 167 700 -771 Descending Kansas City Center
Wed 12:41:00 PM 36.1984 -95.8881 169° South  Level Estimated
Wed 12:48:00 PM 36.1984 -95.8881 169° South  Level Estimated

Login

Don't have an account? Register now (free) for customized features, flight alerts, and more!